Time;durP1;ratioP1;P1;durP2;ratioP2;P2;SDS_P1;SDS_P2;PMS_P1;PMS_P2;Temp;Humidity;BMP_temperature;BMP_pressure;BME280_temperature;BME280_humidity;BME280_pressure;Samples;Min_cycle;Max_cycle;Signal;HPM_P1;HPM_P2
2023/02/09 00:02:07;;;;;;;39.80;23.80;;;-2.90;99.90;;;;;;4970674;28;20114;-61
2023/02/09 00:04:33;;;;;;;42.88;24.85;;;-3.00;99.90;;;;;;4971389;28;20412;-62
2023/02/09 00:07:00;;;;;;;45.10;25.15;;;-3.00;99.90;;;;;;4972238;28;20015;-62
2023/02/09 00:09:26;;;;;;;41.33;25.38;;;-3.00;99.90;;;;;;4969943;28;20433;-62
2023/02/09 00:14:36;;;;;;;43.67;25.77;;;-3.00;99.90;;;;;;4971111;28;20671;-62
2023/02/09 00:17:02;;;;;;;44.40;25.73;;;-3.10;99.90;;;;;;4971640;28;20023;-61
2023/02/09 00:19:28;;;;;;;39.85;24.50;;;-3.10;99.90;;;;;;4970675;28;20094;-61
2023/02/09 00:21:53;;;;;;;45.03;25.73;;;-3.10;99.90;;;;;;4971091;28;20031;-61
2023/02/09 00:24:19;;;;;;;50.95;27.83;;;-3.10;99.90;;;;;;4972076;28;20065;-62
2023/02/09 00:26:45;;;;;;;41.35;25.77;;;-3.10;99.90;;;;;;4969256;28;20031;-61
2023/02/09 00:29:11;;;;;;;40.63;24.15;;;-3.10;99.90;;;;;;4971518;28;20650;-61
2023/02/09 00:31:37;;;;;;;46.70;25.50;;;-3.10;99.90;;;;;;4969906;28;20041;-61
2023/02/09 00:34:03;;;;;;;46.88;26.25;;;-3.10;99.90;;;;;;4970873;28;20088;-61
2023/02/09 00:36:29;;;;;;;43.00;24.08;;;-3.10;99.90;;;;;;4969274;28;20117;-61
2023/02/09 00:38:55;;;;;;;44.42;26.45;;;-3.20;99.90;;;;;;4971497;28;20509;-61
2023/02/09 00:42:04;;;;;;;44.28;24.70;;;-3.20;99.90;;;;;;4970556;28;20031;-61
2023/02/09 00:44:06;;;;;;;39.72;24.15;;;-3.20;99.90;;;;;;4971289;28;20038;-61
2023/02/09 00:46:31;;;;;;;46.60;25.10;;;-3.20;99.90;;;;;;4971168;28;20111;-61
2023/02/09 00:48:57;;;;;;;44.15;25.75;;;-3.20;99.90;;;;;;4969641;28;20027;-61
2023/02/09 00:51:22;;;;;;;45.72;26.70;;;-3.20;99.90;;;;;;4970225;28;20031;-61
2023/02/09 00:53:48;;;;;;;39.47;24.13;;;-3.20;99.90;;;;;;4970743;28;20102;-61
2023/02/09 00:56:14;;;;;;;41.97;24.65;;;-3.20;99.90;;;;;;4970282;28;20068;-61
2023/02/09 00:58:39;;;;;;;38.35;24.40;;;-3.20;99.90;;;;;;4970044;28;20042;-60
2023/02/09 01:01:05;;;;;;;42.45;26.13;;;-3.30;99.90;;;;;;4969742;28;20023;-61
2023/02/09 01:03:30;;;;;;;46.45;26.45;;;-3.30;99.90;;;;;;4969865;28;20489;-59
2023/02/09 01:05:58;;;;;;;42.60;26.02;;;-3.30;99.90;;;;;;4969679;28;20023;-61
2023/02/09 01:08:24;;;;;;;37.35;24.77;;;-3.30;99.90;;;;;;4968578;28;20034;-61
2023/02/09 01:10:50;;;;;;;45.40;28.02;;;-3.30;99.90;;;;;;4966856;28;20034;-61
2023/02/09 01:13:15;;;;;;;45.35;25.02;;;-3.30;99.90;;;;;;4967708;28;20027;-61
2023/02/09 01:15:41;;;;;;;44.47;24.73;;;-3.30;99.90;;;;;;4970360;28;20505;-61
2023/02/09 01:18:07;;;;;;;41.70;24.00;;;-3.30;99.90;;;;;;4969114;28;20031;-61
2023/02/09 01:20:33;;;;;;;46.22;26.10;;;-3.40;99.90;;;;;;4969944;28;20066;-61
2023/02/09 01:22:58;;;;;;;43.42;25.70;;;-3.40;99.90;;;;;;4970376;28;20058;-61
2023/02/09 01:25:24;;;;;;;39.38;25.00;;;-3.40;99.90;;;;;;4969738;28;20045;-60
2023/02/09 01:27:49;;;;;;;43.90;26.92;;;-3.40;99.90;;;;;;4969418;28;20031;-61
2023/02/09 01:30:15;;;;;;;45.72;26.63;;;-3.40;99.90;;;;;;4970770;28;20367;-61
2023/02/09 01:32:41;;;;;;;49.05;25.83;;;-3.40;99.90;;;;;;4969601;28;20023;-61
2023/02/09 01:35:07;;;;;;;40.40;27.05;;;-3.40;99.90;;;;;;4968942;28;20029;-59
2023/02/09 01:37:34;;;;;;;45.95;26.13;;;-3.40;99.90;;;;;;4967524;28;20806;-59
2023/02/09 01:40:00;;;;;;;41.60;24.73;;;-3.50;99.90;;;;;;4965407;28;20401;-61
2023/02/09 01:42:25;;;;;;;41.53;24.08;;;-3.50;99.90;;;;;;4967221;28;20042;-61
2023/02/09 01:45:27;;;;;;;42.67;25.13;;;-3.50;99.90;;;;;;4967247;28;20026;-59
2023/02/09 01:48:00;;;;;;;45.55;24.95;;;-3.50;99.90;;;;;;4964907;28;20038;-60
2023/02/09 01:50:27;;;;;;;45.17;25.33;;;-3.50;99.90;;;;;;4968599;28;20537;-59
2023/02/09 01:52:53;;;;;;;43.97;26.98;;;-3.50;99.90;;;;;;4969215;28;20027;-60
2023/02/09 01:55:24;;;;;;;43.50;25.60;;;-3.50;99.90;;;;;;4967527;28;20065;-60
2023/02/09 01:58:04;;;;;;;43.10;26.35;;;-3.50;99.90;;;;;;4967854;28;20105;-61
2023/02/09 02:00:30;;;;;;;43.33;25.77;;;-3.50;99.90;;;;;;4968583;28;20504;-60
2023/02/09 02:03:01;;;;;;;43.72;25.45;;;-3.50;99.90;;;;;;4968627;28;20033;-60
2023/02/09 02:05:28;;;;;;;43.05;26.55;;;-3.50;99.90;;;;;;4968910;28;20027;-61
2023/02/09 02:08:01;;;;;;;49.90;26.45;;;-3.60;99.90;;;;;;4969503;28;20023;-60
2023/02/09 02:10:26;;;;;;;47.42;27.38;;;-3.60;99.90;;;;;;4968535;28;20023;-60
2023/02/09 02:12:53;;;;;;;44.10;25.77;;;-3.60;99.90;;;;;;4969794;28;20435;-60
2023/02/09 02:15:20;;;;;;;46.55;25.95;;;-3.60;99.90;;;;;;4968882;28;20022;-61
2023/02/09 02:17:53;;;;;;;48.65;26.08;;;-3.60;99.90;;;;;;4969739;28;20246;-61
2023/02/09 02:20:21;;;;;;;48.40;26.02;;;-3.60;99.90;;;;;;4968813;28;20023;-61
2023/02/09 02:22:56;;;;;;;44.05;25.65;;;-3.60;99.90;;;;;;4968562;28;20065;-61
2023/02/09 02:25:59;;;;;;;45.53;27.02;;;-3.60;99.90;;;;;;4969149;28;20647;-60
2023/02/09 02:28:33;;;;;;;45.65;25.33;;;-3.60;99.90;;;;;;4968659;28;20114;-58
2023/02/09 02:31:36;;;;;;;48.67;26.02;;;-3.70;99.90;;;;;;4967561;28;20031;-60
2023/02/09 02:34:40;;;;;;;43.55;26.00;;;-3.70;99.90;;;;;;4968112;28;20033;-61
2023/02/09 02:37:15;;;;;;;40.33;25.48;;;-3.70;99.90;;;;;;4915588;28;20063;-60
2023/02/09 02:39:50;;;;;;;41.50;24.40;;;-3.70;99.90;;;;;;4966981;28;20494;-61
2023/02/09 02:45:34;;;;;;;43.55;25.98;;;-3.70;99.90;;;;;;4968081;28;20033;-61
2023/02/09 02:48:28;;;;;;;42.08;24.75;;;-3.80;99.90;;;;;;4968647;28;20116;-61
2023/02/09 02:51:11;;;;;;;41.65;25.70;;;-3.80;99.90;;;;;;4967567;28;20035;-60
2023/02/09 02:53:41;;;;;;;45.65;26.00;;;-3.80;99.90;;;;;;4968358;28;20577;-61
2023/02/09 02:56:14;;;;;;;42.28;25.60;;;-3.80;99.90;;;;;;4966522;28;20106;-60
2023/02/09 02:58:42;;;;;;;48.40;27.05;;;-3.80;99.90;;;;;;4972445;28;20321;-60
2023/02/09 03:01:13;;;;;;;42.28;25.77;;;-3.80;99.90;;;;;;4971438;28;20030;-60
2023/02/09 03:03:41;;;;;;;44.90;26.05;;;-3.80;99.90;;;;;;4972394;28;20121;-61
2023/02/09 03:06:09;;;;;;;42.63;26.05;;;-3.80;99.90;;;;;;4970983;28;20500;-60
2023/02/09 03:08:55;;;;;;;48.13;27.27;;;-3.90;99.90;;;;;;4972824;28;20027;-59
2023/02/09 03:11:24;;;;;;;42.13;24.50;;;-3.90;99.90;;;;;;4971654;28;20383;-60
2023/02/09 03:14:01;;;;;;;44.83;23.88;;;-3.90;99.90;;;;;;4972034;28;20470;-61
2023/02/09 03:16:44;;;;;;;46.08;24.92;;;-3.90;99.90;;;;;;4970746;28;20050;-60
2023/02/09 03:19:44;;;;;;;44.38;27.05;;;-3.90;99.90;;;;;;4970272;28;20381;-61
2023/02/09 03:22:35;;;;;;;44.25;24.33;;;-4.00;99.90;;;;;;4972312;28;20019;-61
2023/02/09 03:25:21;;;;;;;41.55;25.70;;;-4.00;99.90;;;;;;4971003;28;20027;-61
2023/02/09 03:27:57;;;;;;;39.90;25.33;;;-4.00;99.90;;;;;;4972535;28;20478;-60
2023/02/09 03:30:23;;;;;;;40.72;23.70;;;-4.00;99.90;;;;;;4971632;28;20026;-60
2023/02/09 03:32:55;;;;;;;39.90;23.83;;;-4.10;99.90;;;;;;4972620;28;20031;-60
2023/02/09 03:35:23;;;;;;;41.33;23.42;;;-4.10;99.90;;;;;;4971337;28;20027;-61
2023/02/09 03:37:49;;;;;;;41.00;24.83;;;-4.10;99.90;;;;;;4971300;28;20034;-60
2023/02/09 03:40:15;;;;;;;42.28;24.80;;;-4.20;99.90;;;;;;4972017;28;20477;-60
2023/02/09 03:42:40;;;;;;;41.95;24.33;;;-4.20;99.90;;;;;;4971616;28;20493;-58
2023/02/09 03:45:06;;;;;;;39.25;22.13;;;-4.20;99.90;;;;;;4971492;28;20029;-60
2023/02/09 03:47:32;;;;;;;37.95;23.80;;;-4.20;99.90;;;;;;4970937;28;20038;-60
2023/02/09 03:49:58;;;;;;;46.22;25.50;;;-4.20;99.90;;;;;;4971945;28;20018;-61
2023/02/09 03:52:24;;;;;;;41.95;24.75;;;-4.30;99.90;;;;;;4971026;28;20189;-61
2023/02/09 03:54:50;;;;;;;38.60;25.00;;;-4.30;99.90;;;;;;4971945;28;20034;-59
2023/02/09 03:57:15;;;;;;;40.70;25.55;;;-4.30;99.90;;;;;;4972016;28;20037;-60
2023/02/09 03:59:41;;;;;;;44.25;24.05;;;-4.30;99.90;;;;;;4971071;28;20065;-60
2023/02/09 04:02:08;;;;;;;41.67;24.60;;;-4.30;99.90;;;;;;4969649;28;20496;-60
2023/02/09 04:04:35;;;;;;;40.90;22.88;;;-4.30;99.90;;;;;;4969965;28;20386;-61
2023/02/09 04:07:01;;;;;;;38.83;23.25;;;-4.40;99.90;;;;;;4971463;28;20023;-59
2023/02/09 04:09:27;;;;;;;39.47;22.60;;;-4.40;99.90;;;;;;4970239;28;20041;-61
2023/02/09 04:11:52;;;;;;;44.17;23.38;;;-4.40;99.90;;;;;;4971541;28;20118;-61
2023/02/09 04:14:18;;;;;;;40.72;22.65;;;-4.40;99.90;;;;;;4970581;28;20460;-59
2023/02/09 04:16:44;;;;;;;36.10;22.25;;;-4.40;99.90;;;;;;4971377;28;20029;-61
2023/02/09 04:19:10;;;;;;;40.78;24.35;;;-4.40;99.90;;;;;;4971695;28;20085;-61
2023/02/09 04:21:37;;;;;;;38.72;21.80;;;-4.40;99.90;;;;;;4969981;28;20486;-60
2023/02/09 04:24:03;;;;;;;37.65;22.75;;;-4.40;99.90;;;;;;4971868;28;20029;-60
2023/02/09 04:26:29;;;;;;;44.47;25.02;;;-4.40;99.90;;;;;;4971051;28;20042;-61
2023/02/09 04:28:54;;;;;;;38.00;23.15;;;-4.40;99.90;;;;;;4970303;28;20031;-61
2023/02/09 04:31:20;;;;;;;38.80;22.98;;;-4.40;99.90;;;;;;4970675;28;20408;-61
2023/02/09 04:33:45;;;;;;;35.28;23.73;;;-4.40;99.90;;;;;;4971385;28;20062;-61
2023/02/09 04:36:12;;;;;;;40.38;21.63;;;-4.40;99.90;;;;;;4969907;28;20027;-61
2023/02/09 04:38:37;;;;;;;40.75;22.08;;;-4.40;99.90;;;;;;4970846;28;20101;-61
2023/02/09 04:41:04;;;;;;;36.70;22.38;;;-4.40;99.90;;;;;;4971064;28;20458;-60
2023/02/09 04:43:30;;;;;;;36.63;22.63;;;-4.40;99.90;;;;;;4970517;28;20054;-60
2023/02/09 04:45:56;;;;;;;40.25;23.70;;;-4.40;99.90;;;;;;4969981;28;20023;-60
2023/02/09 04:48:23;;;;;;;37.45;21.63;;;-4.40;99.90;;;;;;4970567;28;20033;-61
2023/02/09 04:50:49;;;;;;;34.03;21.38;;;-4.40;99.90;;;;;;4969391;28;20466;-61
2023/02/09 04:53:15;;;;;;;37.20;22.25;;;-4.40;99.90;;;;;;4971089;28;20033;-61
2023/02/09 04:55:43;;;;;;;39.38;23.30;;;-4.40;99.90;;;;;;4969635;28;20030;-61
2023/02/09 05:00:55;;;;;;;37.08;20.95;;;-4.50;99.90;;;;;;4970001;28;20042;-61
2023/02/09 05:03:21;;;;;;;35.58;21.65;;;-4.40;99.90;;;;;;4970674;28;20062;-61
2023/02/09 05:05:47;;;;;;;39.97;23.35;;;-4.50;99.90;;;;;;4970654;28;20062;-61
2023/02/09 05:08:12;;;;;;;39.22;22.63;;;-4.50;99.90;;;;;;4970354;28;20061;-61
2023/02/09 05:10:39;;;;;;;36.85;22.20;;;-4.50;99.90;;;;;;4970670;28;20027;-61
2023/02/09 05:13:04;;;;;;;37.28;21.05;;;-4.50;99.90;;;;;;4969635;28;20027;-61
2023/02/09 05:15:30;;;;;;;35.17;22.60;;;-4.50;99.90;;;;;;4970807;28;20551;-61
2023/02/09 05:17:55;;;;;;;39.42;22.40;;;-4.50;99.90;;;;;;4970664;28;20346;-61
2023/02/09 05:20:21;;;;;;;35.20;22.48;;;-4.50;99.90;;;;;;4969550;28;20015;-61
2023/02/09 05:22:46;;;;;;;41.33;22.02;;;-4.50;99.90;;;;;;4967798;28;20457;-61
2023/02/09 05:25:12;;;;;;;35.53;22.30;;;-4.40;99.90;;;;;;4968124;28;20034;-61
2023/02/09 05:27:37;;;;;;;36.30;21.67;;;-4.40;99.90;;;;;;4969287;28;20532;-60
2023/02/09 05:30:04;;;;;;;36.80;23.23;;;-4.40;99.90;;;;;;4970279;28;20022;-60
2023/02/09 05:32:29;;;;;;;37.95;21.60;;;-4.40;99.90;;;;;;4970720;28;20023;-58
2023/02/09 05:34:55;;;;;;;40.40;22.88;;;-4.40;99.90;;;;;;4969955;28;20393;-61
2023/02/09 05:37:20;;;;;;;41.25;22.20;;;-4.40;99.90;;;;;;4970345;28;20023;-60
2023/02/09 05:39:46;;;;;;;38.22;22.00;;;-4.40;99.90;;;;;;4969676;28;20042;-61
2023/02/09 05:42:15;;;;;;;36.50;22.08;;;-4.50;99.90;;;;;;4969407;28;20647;-60
2023/02/09 05:44:48;;;;;;;40.22;22.73;;;-4.50;99.90;;;;;;4970144;28;20034;-61
2023/02/09 05:47:16;;;;;;;39.65;21.85;;;-4.40;99.90;;;;;;4966847;28;20111;-60
2023/02/09 05:49:42;;;;;;;35.72;20.83;;;-4.50;99.90;;;;;;4968732;28;20504;-60
2023/02/09 05:52:08;;;;;;;37.65;22.08;;;-4.50;99.90;;;;;;4968503;28;20027;-61
2023/02/09 05:54:34;;;;;;;39.35;21.38;;;-4.40;99.90;;;;;;4968450;28;20041;-61
2023/02/09 05:57:00;;;;;;;38.60;21.63;;;-4.50;99.90;;;;;;4968421;28;20043;-61
2023/02/09 05:59:26;;;;;;;35.45;21.40;;;-4.40;99.90;;;;;;4969100;28;20054;-60
2023/02/09 06:01:52;;;;;;;33.40;20.17;;;-4.40;99.90;;;;;;4969495;28;20113;-59
2023/02/09 06:04:17;;;;;;;36.95;21.05;;;-4.40;99.90;;;;;;4969400;28;20038;-61
2023/02/09 06:06:43;;;;;;;38.97;20.75;;;-4.40;99.90;;;;;;4969441;28;20556;-60
2023/02/09 06:09:08;;;;;;;35.17;19.55;;;-4.30;99.90;;;;;;4967806;28;20438;-60
2023/02/09 06:11:35;;;;;;;34.63;20.00;;;-4.30;99.90;;;;;;4969357;28;20019;-60
2023/02/09 06:14:00;;;;;;;31.30;19.20;;;-4.30;99.90;;;;;;4968258;28;20034;-60
2023/02/09 06:16:26;;;;;;;30.90;17.60;;;-4.30;99.90;;;;;;4968774;28;20031;-61
2023/02/09 06:18:51;;;;;;;30.40;16.90;;;-4.30;99.90;;;;;;4968474;28;20118;-61
2023/02/09 06:21:17;;;;;;;30.63;15.27;;;-4.30;99.90;;;;;;4968805;28;20019;-59
2023/02/09 06:23:43;;;;;;;28.98;16.85;;;-4.30;99.90;;;;;;4968539;28;20027;-60
2023/02/09 06:26:14;;;;;;;28.60;15.23;;;-4.30;99.90;;;;;;4968929;28;20102;-60
2023/02/09 06:28:40;;;;;;;25.10;14.27;;;-4.20;99.90;;;;;;4967844;28;20031;-58
2023/02/09 06:31:06;;;;;;;23.17;14.35;;;-4.10;99.90;;;;;;4969207;28;20027;-61
2023/02/09 06:33:33;;;;;;;27.77;14.63;;;-4.10;99.90;;;;;;4967936;28;20624;-61
2023/02/09 06:35:59;;;;;;;24.13;13.57;;;-4.10;99.90;;;;;;4968327;28;20034;-60
2023/02/09 06:38:24;;;;;;;26.48;14.50;;;-4.00;99.90;;;;;;4967946;28;20485;-61
2023/02/09 06:40:50;;;;;;;21.60;12.35;;;-4.00;99.90;;;;;;4968214;28;20027;-59
2023/02/09 06:43:16;;;;;;;21.15;11.40;;;-4.00;99.90;;;;;;4968925;28;20090;-61
2023/02/09 06:45:42;;;;;;;20.98;11.98;;;-3.90;99.90;;;;;;4967810;28;20042;-61
2023/02/09 06:48:08;;;;;;;89.70;41.45;;;-3.90;99.90;;;;;;4968621;28;20043;-61
2023/02/09 06:50:35;;;;;;;92.85;44.10;;;-3.90;99.90;;;;;;4968617;28;20042;-60
2023/02/09 06:53:01;;;;;;;36.95;22.98;;;-3.80;99.90;;;;;;4968407;28;20011;-61
2023/02/09 06:55:27;;;;;;;24.60;15.80;;;-3.80;99.90;;;;;;4967156;28;20030;-61
2023/02/09 06:57:54;;;;;;;21.70;12.15;;;-3.70;99.90;;;;;;4966318;28;20035;-60
2023/02/09 07:00:20;;;;;;;19.80;12.23;;;-3.70;99.90;;;;;;4969860;28;20101;-61
2023/02/09 07:02:46;;;;;;;21.90;12.57;;;-3.60;99.90;;;;;;4970631;28;20128;-59
2023/02/09 07:05:13;;;;;;;20.80;12.68;;;-3.50;99.90;;;;;;4968831;28;20113;-61
2023/02/09 07:07:39;;;;;;;25.00;16.40;;;-3.40;99.90;;;;;;4969377;28;20049;-59
2023/02/09 07:10:07;;;;;;;25.95;13.90;;;-3.30;99.90;;;;;;4970215;28;20083;-60
2023/02/09 07:12:33;;;;;;;21.88;13.63;;;-3.20;99.90;;;;;;4968157;28;20038;-61
2023/02/09 07:14:59;;;;;;;19.40;12.77;;;-3.20;99.90;;;;;;4968468;28;20489;-61
2023/02/09 07:17:28;;;;;;;21.17;11.57;;;-3.10;99.90;;;;;;4969161;28;20097;-60
2023/02/09 07:19:54;;;;;;;17.02;10.63;;;-3.00;99.90;;;;;;4967968;28;20031;-61
2023/02/09 07:22:21;;;;;;;16.63;9.80;;;-2.90;99.90;;;;;;4969137;28;20081;-60
2023/02/09 07:24:47;;;;;;;16.67;10.50;;;-2.80;99.90;;;;;;4967680;28;20514;-60
2023/02/09 07:27:13;;;;;;;18.20;9.60;;;-2.80;99.90;;;;;;4969074;28;20070;-60
2023/02/09 07:29:38;;;;;;;19.13;10.25;;;-2.70;99.90;;;;;;4968110;28;20030;-61
2023/02/09 07:32:06;;;;;;;17.95;10.90;;;-2.70;99.90;;;;;;4967204;28;20041;-61
2023/02/09 07:34:32;;;;;;;14.68;10.07;;;-2.70;99.90;;;;;;4966849;28;20059;-61
2023/02/09 07:36:58;;;;;;;14.48;9.57;;;-2.60;99.90;;;;;;4967683;28;20509;-60
2023/02/09 07:39:24;;;;;;;14.27;9.15;;;-2.60;99.90;;;;;;4966756;28;20069;-61
2023/02/09 07:41:49;;;;;;;15.23;9.77;;;-2.50;99.90;;;;;;4969158;28;20031;-61
2023/02/09 07:44:15;;;;;;;16.65;9.27;;;-2.40;99.90;;;;;;4971483;28;20054;-61
2023/02/09 07:46:40;;;;;;;15.38;8.52;;;-2.40;99.90;;;;;;4971548;28;20039;-60
2023/02/09 07:49:06;;;;;;;17.13;10.18;;;-2.50;99.90;;;;;;4970984;28;20457;-60
2023/02/09 07:51:32;;;;;;;13.88;9.65;;;-2.40;99.90;;;;;;4970950;28;20089;-61
2023/02/09 07:53:58;;;;;;;14.65;8.77;;;-2.30;99.90;;;;;;4971443;28;20038;-61
2023/02/09 07:56:24;;;;;;;15.30;8.77;;;-2.30;99.90;;;;;;4971450;28;20031;-59
2023/02/09 07:58:50;;;;;;;17.60;8.60;;;-2.30;99.90;;;;;;4970123;28;20034;-60
2023/02/09 08:01:17;;;;;;;18.25;9.07;;;-2.30;99.90;;;;;;4970966;28;20031;-61
2023/02/09 08:03:45;;;;;;;13.57;8.93;;;-2.20;99.90;;;;;;4970271;28;20043;-60
2023/02/09 08:06:39;;;;;;;16.42;9.70;;;-2.20;99.90;;;;;;4971744;28;20019;-61
2023/02/09 08:09:05;;;;;;;17.92;8.93;;;-2.10;99.90;;;;;;4971188;28;20042;-61
2023/02/09 08:11:44;;;;;;;19.05;9.90;;;-2.10;99.90;;;;;;4983953;28;20030;-61
2023/02/09 08:14:16;;;;;;;18.50;10.27;;;-1.90;99.90;;;;;;4970455;28;20018;-61
2023/02/09 08:16:42;;;;;;;16.90;10.48;;;-1.90;99.90;;;;;;4969744;28;20097;-61
2023/02/09 08:19:16;;;;;;;17.35;9.35;;;-1.80;99.90;;;;;;4970812;28;20038;-61
2023/02/09 08:21:44;;;;;;;16.70;9.95;;;-1.80;99.90;;;;;;4971058;28;20086;-61
2023/02/09 08:24:11;;;;;;;17.45;9.90;;;-1.70;99.90;;;;;;4971090;28;20464;-60
2023/02/09 08:26:37;;;;;;;15.13;9.38;;;-1.70;99.90;;;;;;4970592;28;20054;-61
2023/02/09 08:29:03;;;;;;;14.27;9.73;;;-1.60;99.90;;;;;;4970480;28;20027;-61
2023/02/09 08:31:28;;;;;;;16.33;10.15;;;-1.60;99.90;;;;;;4970865;28;20026;-61
2023/02/09 08:33:54;;;;;;;18.33;9.27;;;-1.60;99.90;;;;;;4971396;28;20434;-61
2023/02/09 08:36:20;;;;;;;14.25;9.48;;;-1.50;99.90;;;;;;4970717;28;20027;-61
2023/02/09 08:38:47;;;;;;;15.45;9.65;;;-1.40;99.90;;;;;;4971415;28;20027;-61
2023/02/09 08:41:14;;;;;;;15.82;9.45;;;-1.30;99.90;;;;;;4969373;28;20114;-61
2023/02/09 08:43:40;;;;;;;14.05;9.10;;;-1.20;99.90;;;;;;4970435;28;20373;-60
2023/02/09 08:46:10;;;;;;;13.35;9.00;;;-1.10;99.90;;;;;;4969240;28;20031;-61
2023/02/09 08:48:40;;;;;;;16.02;9.73;;;-1.10;99.90;;;;;;4970168;28;20038;-61
2023/02/09 08:51:07;;;;;;;12.75;8.70;;;-1.00;99.90;;;;;;4969202;28;20041;-61
2023/02/09 08:53:33;;;;;;;15.27;9.57;;;-0.90;99.90;;;;;;4968447;28;20402;-61
2023/02/09 08:55:58;;;;;;;14.07;9.27;;;-0.80;99.90;;;;;;4968977;28;20026;-61
2023/02/09 08:58:25;;;;;;;24.63;12.63;;;-0.70;99.90;;;;;;4971100;28;20437;-62
2023/02/09 09:00:55;;;;;;;26.02;14.57;;;-0.70;99.90;;;;;;4970298;28;20157;-61
2023/02/09 09:03:30;;;;;;;18.50;12.38;;;-0.50;99.90;;;;;;4970442;28;20088;-61
2023/02/09 09:06:06;;;;;;;16.45;10.60;;;-0.50;99.90;;;;;;4970833;28;20026;-61
2023/02/09 09:08:33;;;;;;;14.10;9.43;;;-0.40;99.90;;;;;;4970150;28;20034;-59
2023/02/09 09:10:59;;;;;;;14.27;8.40;;;-0.30;99.90;;;;;;4969274;28;20450;-61
2023/02/09 09:13:26;;;;;;;14.20;8.25;;;-0.30;99.90;;;;;;4968907;28;20460;-61
2023/02/09 09:15:54;;;;;;;14.93;9.07;;;-0.20;99.90;;;;;;4970697;28;20384;-61
2023/02/09 09:18:20;;;;;;;15.63;9.80;;;-0.10;99.90;;;;;;4970088;28;20282;-61
2023/02/09 09:20:45;;;;;;;14.27;8.88;;;0.00;99.90;;;;;;4968183;28;20061;-61
2023/02/09 09:23:11;;;;;;;14.98;8.07;;;0.10;99.90;;;;;;4970302;28;20477;-61
2023/02/09 09:25:40;;;;;;;13.55;8.85;;;0.10;99.90;;;;;;4968516;28;20038;-61
2023/02/09 09:28:07;;;;;;;14.70;8.77;;;0.30;99.90;;;;;;4969723;28;20034;-61
2023/02/09 09:30:32;;;;;;;15.48;8.63;;;0.30;99.90;;;;;;4969198;28;20050;-61
2023/02/09 09:32:58;;;;;;;11.82;8.48;;;0.40;99.90;;;;;;4970456;28;20509;-61
2023/02/09 09:35:25;;;;;;;15.98;9.80;;;0.40;99.90;;;;;;4968917;28;20030;-61
2023/02/09 09:37:52;;;;;;;15.40;9.43;;;0.40;99.90;;;;;;4969666;28;20031;-61
2023/02/09 09:40:23;;;;;;;14.52;8.70;;;0.50;99.90;;;;;;4969382;28;20505;-61
2023/02/09 09:42:58;;;;;;;13.77;8.70;;;0.50;99.90;;;;;;4969354;28;20041;-61
2023/02/09 09:45:26;;;;;;;14.10;8.43;;;0.50;99.90;;;;;;4969699;28;20045;-62
2023/02/09 09:47:55;;;;;;;14.30;8.73;;;0.60;99.90;;;;;;4968586;28;20390;-62
2023/02/09 09:50:26;;;;;;;17.27;9.32;;;0.60;99.90;;;;;;4968698;28;20496;-62
2023/02/09 09:53:09;;;;;;;13.52;8.80;;;0.70;99.90;;;;;;4968573;28;20022;-61
2023/02/09 09:55:37;;;;;;;13.80;8.20;;;0.70;99.90;;;;;;4969982;28;20031;-62
2023/02/09 09:58:05;;;;;;;12.77;8.50;;;0.80;99.90;;;;;;4968618;28;20073;-62
2023/02/09 10:00:38;;;;;;;15.43;9.02;;;0.80;99.90;;;;;;4969538;28;20057;-62
2023/02/09 10:03:13;;;;;;;15.85;8.65;;;0.90;99.90;;;;;;4967720;28;20042;-62
2023/02/09 10:05:39;;;;;;;12.73;7.85;;;1.00;99.90;;;;;;4969714;28;20413;-62
2023/02/09 10:08:31;;;;;;;13.85;9.23;;;1.00;99.90;;;;;;4968995;28;20039;-62
2023/02/09 10:11:01;;;;;;;18.02;9.15;;;1.10;99.90;;;;;;4969231;28;20019;-62
2023/02/09 10:13:38;;;;;;;15.30;8.52;;;1.10;99.90;;;;;;4967661;28;20490;-63
2023/02/09 10:16:23;;;;;;;15.52;9.05;;;1.20;99.90;;;;;;4967797;28;20308;-63
2023/02/09 10:18:51;;;;;;;16.65;8.90;;;1.30;99.90;;;;;;4969617;28;20497;-63
2023/02/09 10:21:17;;;;;;;14.95;8.95;;;1.30;99.90;;;;;;4967435;28;20034;-63
2023/02/09 10:23:49;;;;;;;18.20;8.95;;;1.30;99.90;;;;;;4969769;28;20642;-63
2023/02/09 10:26:17;;;;;;;13.60;8.38;;;1.30;99.90;;;;;;4968713;28;20027;-64
2023/02/09 10:28:49;;;;;;;17.58;9.80;;;1.40;99.90;;;;;;4969336;28;20139;-63
2023/02/09 10:31:30;;;;;;;12.85;8.65;;;1.40;99.90;;;;;;4968670;28;20059;-63
2023/02/09 10:34:02;;;;;;;13.95;8.45;;;1.50;99.90;;;;;;4968636;28;20035;-64
2023/02/09 10:36:33;;;;;;;15.23;9.00;;;1.50;99.90;;;;;;4968073;28;20038;-64
2023/02/09 10:39:10;;;;;;;14.25;8.65;;;1.60;99.90;;;;;;4967834;28;20019;-63
2023/02/09 10:41:39;;;;;;;12.73;8.52;;;1.60;99.90;;;;;;4968466;28;20105;-61
2023/02/09 10:44:24;;;;;;;13.20;8.25;;;1.70;99.90;;;;;;4968091;28;20033;-63
2023/02/09 10:47:07;;;;;;;10.77;8.23;;;1.70;99.90;;;;;;4968658;28;20031;-64
2023/02/09 10:49:35;;;;;;;9.77;7.68;;;1.70;99.90;;;;;;4967116;28;20378;-64
2023/02/09 10:52:19;;;;;;;13.90;9.07;;;1.80;99.90;;;;;;4969095;28;20015;-64
2023/02/09 10:54:58;;;;;;;12.50;8.15;;;1.80;99.90;;;;;;4966575;28;20117;-64
2023/02/09 10:57:27;;;;;;;13.60;8.60;;;1.90;99.90;;;;;;4968444;28;20026;-64
2023/02/09 10:59:59;;;;;;;14.50;8.95;;;1.90;99.90;;;;;;4968156;28;20038;-65
2023/02/09 11:02:41;;;;;;;14.30;8.70;;;2.00;99.90;;;;;;4967408;28;20053;-65
2023/02/09 11:05:19;;;;;;;14.52;8.82;;;2.00;99.90;;;;;;4968676;28;20037;-65
2023/02/09 11:07:54;;;;;;;14.55;8.57;;;2.10;99.90;;;;;;4967955;28;20035;-64
2023/02/09 11:10:20;;;;;;;11.98;7.90;;;2.10;99.90;;;;;;4966803;28;20121;-65
2023/02/09 11:12:46;;;;;;;12.80;8.35;;;2.10;99.90;;;;;;4968923;28;20019;-65
2023/02/09 11:15:21;;;;;;;14.52;8.65;;;2.10;99.90;;;;;;4968565;28;20276;-65
2023/02/09 11:17:55;;;;;;;14.50;8.10;;;2.20;99.90;;;;;;4968251;28;20130;-66
2023/02/09 11:20:34;;;;;;;12.95;8.68;;;2.20;99.90;;;;;;4970466;28;20093;-66
2023/02/09 11:23:30;;;;;;;12.35;8.88;;;2.30;99.90;;;;;;4971961;28;20500;-65
2023/02/09 11:26:01;;;;;;;11.57;8.47;;;2.30;99.90;;;;;;4971889;28;20122;-66
2023/02/09 11:28:56;;;;;;;13.75;8.57;;;2.30;99.90;;;;;;4972023;28;20026;-65
2023/02/09 11:31:47;;;;;;;13.95;8.05;;;2.30;99.90;;;;;;4971731;28;20025;-66
2023/02/09 11:34:53;;;;;;;13.55;8.35;;;2.30;99.90;;;;;;4972847;28;20090;-66
2023/02/09 11:37:24;;;;;;;12.50;7.75;;;2.40;99.90;;;;;;4972130;28;20030;-66
2023/02/09 11:40:11;;;;;;;13.15;7.88;;;2.40;99.90;;;;;;4971771;28;20023;-66
2023/02/09 11:42:42;;;;;;;15.73;8.95;;;2.50;99.90;;;;;;4971206;28;20029;-65
2023/02/09 11:45:21;;;;;;;13.73;9.18;;;2.50;99.90;;;;;;4971978;28;20037;-65
2023/02/09 11:48:09;;;;;;;12.25;9.13;;;2.50;99.90;;;;;;4971752;28;20030;-64
2023/02/09 11:51:05;;;;;;;13.52;8.95;;;2.60;99.90;;;;;;4971373;28;20038;-65
2023/02/09 11:53:36;;;;;;;12.07;8.65;;;2.60;99.90;;;;;;4972309;28;20030;-65
2023/02/09 11:56:06;;;;;;;11.93;8.13;;;2.60;99.90;;;;;;4971450;28;20107;-66
2023/02/09 11:58:44;;;;;;;14.38;8.50;;;2.70;99.90;;;;;;4972012;28;20031;-66
2023/02/09 12:01:42;;;;;;;11.52;8.20;;;2.70;99.90;;;;;;4970651;28;20413;-66
2023/02/09 12:04:41;;;;;;;13.38;8.45;;;2.70;99.90;;;;;;4971915;28;20289;-64
2023/02/09 12:07:47;;;;;;;14.15;9.68;;;2.70;99.90;;;;;;4972274;28;20058;-65
2023/02/09 12:10:31;;;;;;;15.70;8.68;;;2.70;99.90;;;;;;4972159;28;20100;-64
2023/02/09 12:13:00;;;;;;;12.82;8.60;;;2.70;99.90;;;;;;4969747;28;20371;-65
2023/02/09 12:15:36;;;;;;;11.82;8.43;;;2.80;99.90;;;;;;4970063;28;20498;-66
2023/02/09 12:18:11;;;;;;;11.65;8.30;;;2.70;99.90;;;;;;4969965;28;20026;-64
2023/02/09 12:20:37;;;;;;;11.60;8.20;;;2.70;99.90;;;;;;4971183;28;20030;-65
2023/02/09 12:23:15;;;;;;;13.55;8.57;;;2.70;99.90;;;;;;4968727;28;20035;-65
2023/02/09 12:25:58;;;;;;;11.85;8.60;;;2.70;99.90;;;;;;4971299;28;20059;-65
2023/02/09 12:28:26;;;;;;;12.63;8.43;;;2.80;99.90;;;;;;4968025;28;20438;-63
2023/02/09 12:30:52;;;;;;;12.77;8.43;;;2.80;99.90;;;;;;4967003;28;20027;-64
2023/02/09 12:33:22;;;;;;;16.25;8.30;;;2.80;99.90;;;;;;4965495;28;20031;-65
2023/02/09 12:36:08;;;;;;;19.95;8.98;;;2.80;99.90;;;;;;4966776;28;20397;-65
2023/02/09 12:38:49;;;;;;;15.50;9.45;;;2.80;99.90;;;;;;4966740;28;20031;-63
2023/02/09 12:41:16;;;;;;;17.90;11.30;;;2.70;99.90;;;;;;4966585;28;20023;-63
2023/02/09 12:43:46;;;;;;;21.25;12.88;;;2.70;99.90;;;;;;4966781;28;20066;-63
2023/02/09 12:46:17;;;;;;;22.55;14.10;;;2.70;99.90;;;;;;4967102;28;20444;-64
2023/02/09 12:49:10;;;;;;;20.50;11.60;;;2.70;99.90;;;;;;4964128;28;20033;-63
2023/02/09 12:51:38;;;;;;;15.98;11.13;;;2.60;99.90;;;;;;4965327;28;20079;-64
2023/02/09 12:54:41;;;;;;;12.93;10.38;;;2.60;99.90;;;;;;4969975;28;20023;-64
2023/02/09 12:57:15;;;;;;;17.88;10.55;;;2.60;99.90;;;;;;4969254;28;20033;-64
2023/02/09 12:59:51;;;;;;;14.30;9.52;;;2.60;99.90;;;;;;4969135;28;20026;-63